Ohansk, Russia
Current Conditions -  °F | °C
As of 9:00 AM on Thursday 18 Dec 2014 (Local Time) from USPP Reporting Station
Overcast Overcast  
Wind Chill: 15°   Ceiling: 1200
Heat Index: 25°   Visibility: 6mi
Dew Point: 21°   Wind: 9mph
Humidity: 86%   Direction: 160°SSE
Pressure: 30.09"   Gusts: NA
Location:  57.72°N, 55.38°E
Report Text: USPP 180400Z 16004MPS 9999 OVC012 M04/M06 Q1019 21290150 NOSIGRMK QFE753/1004
Loading
Personal Weather Stations






























Interactive Weather Map New forecast layout! Learn more

10-Day Weather Forecast

Advertisements
Track Severe Weather on mobile